sensor_id;sensor_type;location;lat;lon;timestamp;temperature;humidity
2042;DHT22;1026;51.460;7.252;2023-04-25T00:01:26;10.30;90.60
2042;DHT22;1026;51.460;7.252;2023-04-25T00:03:52;10.30;90.60
2042;DHT22;1026;51.460;7.252;2023-04-25T00:06:17;10.30;90.60
2042;DHT22;1026;51.460;7.252;2023-04-25T00:08:43;10.20;90.60
2042;DHT22;1026;51.460;7.252;2023-04-25T00:11:09;10.30;90.60
2042;DHT22;1026;51.460;7.252;2023-04-25T00:13:41;10.30;90.70
2042;DHT22;1026;51.460;7.252;2023-04-25T00:16:15;10.20;90.60
2042;DHT22;1026;51.460;7.252;2023-04-25T00:18:42;10.20;90.60
2042;DHT22;1026;51.460;7.252;2023-04-25T00:21:08;10.20;90.60
2042;DHT22;1026;51.460;7.252;2023-04-25T00:23:34;10.20;90.60
2042;DHT22;1026;51.460;7.252;2023-04-25T00:26:02;10.20;90.60
2042;DHT22;1026;51.460;7.252;2023-04-25T00:28:27;10.20;90.60
2042;DHT22;1026;51.460;7.252;2023-04-25T00:31:05;10.20;90.60
2042;DHT22;1026;51.460;7.252;2023-04-25T00:33:31;10.20;90.60
2042;DHT22;1026;51.460;7.252;2023-04-25T00:35:57;10.20;90.60
2042;DHT22;1026;51.460;7.252;2023-04-25T00:38:22;10.20;90.60
2042;DHT22;1026;51.460;7.252;2023-04-25T00:40:48;10.20;90.60
2042;DHT22;1026;51.460;7.252;2023-04-25T00:43:14;10.20;90.60
2042;DHT22;1026;51.460;7.252;2023-04-25T00:45:40;10.20;90.70
2042;DHT22;1026;51.460;7.252;2023-04-25T00:48:06;10.20;90.70
2042;DHT22;1026;51.460;7.252;2023-04-25T00:50:33;10.20;90.60
2042;DHT22;1026;51.460;7.252;2023-04-25T00:52:59;10.10;90.60
2042;DHT22;1026;51.460;7.252;2023-04-25T00:55:26;10.10;90.60
2042;DHT22;1026;51.460;7.252;2023-04-25T00:57:51;10.10;90.60
2042;DHT22;1026;51.460;7.252;2023-04-25T01:00:18;10.10;90.60
2042;DHT22;1026;51.460;7.252;2023-04-25T01:02:44;10.10;90.60
2042;DHT22;1026;51.460;7.252;2023-04-25T01:05:11;10.10;90.70
2042;DHT22;1026;51.460;7.252;2023-04-25T01:07:37;10.10;90.70
2042;DHT22;1026;51.460;7.252;2023-04-25T01:10:04;10.10;90.70
2042;DHT22;1026;51.460;7.252;2023-04-25T01:12:31;10.00;90.60
2042;DHT22;1026;51.460;7.252;2023-04-25T01:14:57;10.10;90.70
2042;DHT22;1026;51.460;7.252;2023-04-25T01:17:23;10.10;90.70
2042;DHT22;1026;51.460;7.252;2023-04-25T01:19:49;10.10;90.70
2042;DHT22;1026;51.460;7.252;2023-04-25T01:22:16;10.10;90.70
2042;DHT22;1026;51.460;7.252;2023-04-25T01:24:42;10.10;90.70
2042;DHT22;1026;51.460;7.252;2023-04-25T01:27:08;10.10;90.70
2042;DHT22;1026;51.460;7.252;2023-04-25T01:29:35;10.10;90.70
2042;DHT22;1026;51.460;7.252;2023-04-25T01:32:01;10.10;90.70
2042;DHT22;1026;51.460;7.252;2023-04-25T01:34:27;10.10;90.70
2042;DHT22;1026;51.460;7.252;2023-04-25T01:36:53;10.10;90.80
2042;DHT22;1026;51.460;7.252;2023-04-25T01:39:20;10.10;90.80
2042;DHT22;1026;51.460;7.252;2023-04-25T01:41:46;10.00;90.70
2042;DHT22;1026;51.460;7.252;2023-04-25T01:44:13;10.00;90.70
2042;DHT22;1026;51.460;7.252;2023-04-25T01:46:38;10.00;90.70
2042;DHT22;1026;51.460;7.252;2023-04-25T01:49:04;10.00;90.70
2042;DHT22;1026;51.460;7.252;2023-04-25T01:51:30;10.00;90.70
2042;DHT22;1026;51.460;7.252;2023-04-25T01:53:57;10.00;90.70
2042;DHT22;1026;51.460;7.252;2023-04-25T01:56:23;10.00;90.70
2042;DHT22;1026;51.460;7.252;2023-04-25T01:58:49;10.00;90.70
2042;DHT22;1026;51.460;7.252;2023-04-25T02:01:14;10.00;90.80
2042;DHT22;1026;51.460;7.252;2023-04-25T02:03:40;10.00;90.70
2042;DHT22;1026;51.460;7.252;2023-04-25T02:06:06;10.00;90.70
2042;DHT22;1026;51.460;7.252;2023-04-25T02:08:38;10.00;90.70
2042;DHT22;1026;51.460;7.252;2023-04-25T02:11:04;10.00;90.80
2042;DHT22;1026;51.460;7.252;2023-04-25T02:13:29;10.00;90.80
2042;DHT22;1026;51.460;7.252;2023-04-25T02:15:55;10.00;90.80
2042;DHT22;1026;51.460;7.252;2023-04-25T02:18:21;9.90;91.30
2042;DHT22;1026;51.460;7.252;2023-04-25T02:20:46;10.00;90.80
2042;DHT22;1026;51.460;7.252;2023-04-25T02:23:12;10.00;90.80
2042;DHT22;1026;51.460;7.252;2023-04-25T02:25:38;10.00;90.80
2042;DHT22;1026;51.460;7.252;2023-04-25T02:28:04;10.00;90.80
2042;DHT22;1026;51.460;7.252;2023-04-25T02:30:29;10.00;90.80
2042;DHT22;1026;51.460;7.252;2023-04-25T02:32:55;10.00;90.80
2042;DHT22;1026;51.460;7.252;2023-04-25T02:35:21;9.90;91.30
2042;DHT22;1026;51.460;7.252;2023-04-25T02:37:47;10.00;90.80
2042;DHT22;1026;51.460;7.252;2023-04-25T02:40:13;9.90;91.30
2042;DHT22;1026;51.460;7.252;2023-04-25T02:42:39;9.90;91.30
2042;DHT22;1026;51.460;7.252;2023-04-25T02:45:04;9.90;91.30
2042;DHT22;1026;51.460;7.252;2023-04-25T02:47:30;9.90;91.30
2042;DHT22;1026;51.460;7.252;2023-04-25T02:49:56;9.90;91.30
2042;DHT22;1026;51.460;7.252;2023-04-25T02:52:22;9.90;91.30
2042;DHT22;1026;51.460;7.252;2023-04-25T02:54:47;9.90;91.30
2042;DHT22;1026;51.460;7.252;2023-04-25T02:57:13;9.90;91.40
2042;DHT22;1026;51.460;7.252;2023-04-25T02:59:39;9.90;91.30
2042;DHT22;1026;51.460;7.252;2023-04-25T03:02:04;9.90;91.40
2042;DHT22;1026;51.460;7.252;2023-04-25T03:04:30;9.90;91.40
2042;DHT22;1026;51.460;7.252;2023-04-25T03:06:56;9.90;91.40
2042;DHT22;1026;51.460;7.252;2023-04-25T03:09:22;9.90;91.40
2042;DHT22;1026;51.460;7.252;2023-04-25T03:11:47;9.90;91.40
2042;DHT22;1026;51.460;7.252;2023-04-25T03:14:37;9.80;91.40
2042;DHT22;1026;51.460;7.252;2023-04-25T03:17:03;9.80;91.40
2042;DHT22;1026;51.460;7.252;2023-04-25T03:20:00;9.80;91.40
2042;DHT22;1026;51.460;7.252;2023-04-25T03:22:26;9.80;91.40
2042;DHT22;1026;51.460;7.252;2023-04-25T03:24:51;9.80;91.40
2042;DHT22;1026;51.460;7.252;2023-04-25T03:27:17;9.80;91.40
2042;DHT22;1026;51.460;7.252;2023-04-25T03:29:43;9.80;91.40
2042;DHT22;1026;51.460;7.252;2023-04-25T03:32:09;9.80;91.40
2042;DHT22;1026;51.460;7.252;2023-04-25T03:34:34;9.80;91.40
2042;DHT22;1026;51.460;7.252;2023-04-25T03:37:00;9.80;91.40
2042;DHT22;1026;51.460;7.252;2023-04-25T03:39:26;9.80;91.40
2042;DHT22;1026;51.460;7.252;2023-04-25T03:41:52;9.80;91.40
2042;DHT22;1026;51.460;7.252;2023-04-25T03:44:17;9.80;91.40
2042;DHT22;1026;51.460;7.252;2023-04-25T03:46:43;9.80;91.40
2042;DHT22;1026;51.460;7.252;2023-04-25T03:49:09;9.80;91.40
2042;DHT22;1026;51.460;7.252;2023-04-25T03:51:34;9.80;91.40
2042;DHT22;1026;51.460;7.252;2023-04-25T03:54:00;9.80;91.40
2042;DHT22;1026;51.460;7.252;2023-04-25T03:56:26;9.80;91.40
2042;DHT22;1026;51.460;7.252;2023-04-25T03:58:52;9.80;91.50
2042;DHT22;1026;51.460;7.252;2023-04-25T04:01:17;9.80;91.40
2042;DHT22;1026;51.460;7.252;2023-04-25T04:03:43;9.80;91.40
2042;DHT22;1026;51.460;7.252;2023-04-25T04:06:10;9.80;91.40
2042;DHT22;1026;51.460;7.252;2023-04-25T04:08:36;9.70;91.40
2042;DHT22;1026;51.460;7.252;2023-04-25T04:11:01;9.70;91.40
2042;DHT22;1026;51.460;7.252;2023-04-25T04:13:28;9.80;91.50
2042;DHT22;1026;51.460;7.252;2023-04-25T04:15:54;9.70;91.40
2042;DHT22;1026;51.460;7.252;2023-04-25T04:18:19;9.70;91.50
2042;DHT22;1026;51.460;7.252;2023-04-25T04:20:45;9.70;91.50
2042;DHT22;1026;51.460;7.252;2023-04-25T04:23:14;9.70;91.50
2042;DHT22;1026;51.460;7.252;2023-04-25T04:25:40;9.70;91.40
2042;DHT22;1026;51.460;7.252;2023-04-25T04:28:06;9.70;91.40
2042;DHT22;1026;51.460;7.252;2023-04-25T04:30:32;9.70;91.40
2042;DHT22;1026;51.460;7.252;2023-04-25T04:33:02;9.70;91.40
2042;DHT22;1026;51.460;7.252;2023-04-25T04:35:27;9.70;91.40
2042;DHT22;1026;51.460;7.252;2023-04-25T04:37:53;9.70;91.30
2042;DHT22;1026;51.460;7.252;2023-04-25T04:40:20;9.70;91.30
2042;DHT22;1026;51.460;7.252;2023-04-25T04:42:46;9.70;91.40
2042;DHT22;1026;51.460;7.252;2023-04-25T04:45:12;9.70;91.40
2042;DHT22;1026;51.460;7.252;2023-04-25T04:47:38;9.70;91.40
2042;DHT22;1026;51.460;7.252;2023-04-25T04:50:06;9.70;91.30
2042;DHT22;1026;51.460;7.252;2023-04-25T04:52:34;9.70;91.30
2042;DHT22;1026;51.460;7.252;2023-04-25T04:55:00;9.70;91.40
2042;DHT22;1026;51.460;7.252;2023-04-25T04:57:27;9.70;91.30
2042;DHT22;1026;51.460;7.252;2023-04-25T04:59:53;9.70;91.30
2042;DHT22;1026;51.460;7.252;2023-04-25T05:02:19;9.60;91.30
2042;DHT22;1026;51.460;7.252;2023-04-25T05:04:45;9.70;91.40
2042;DHT22;1026;51.460;7.252;2023-04-25T05:07:11;9.60;91.30
2042;DHT22;1026;51.460;7.252;2023-04-25T05:09:37;9.60;91.30
2042;DHT22;1026;51.460;7.252;2023-04-25T05:12:02;9.60;91.30
2042;DHT22;1026;51.460;7.252;2023-04-25T05:14:28;9.60;91.30
2042;DHT22;1026;51.460;7.252;2023-04-25T05:16:54;9.60;91.30
2042;DHT22;1026;51.460;7.252;2023-04-25T05:19:20;9.60;91.40
2042;DHT22;1026;51.460;7.252;2023-04-25T05:21:45;9.60;91.40
2042;DHT22;1026;51.460;7.252;2023-04-25T05:24:11;9.60;91.40
2042;DHT22;1026;51.460;7.252;2023-04-25T05:26:37;9.60;91.40
2042;DHT22;1026;51.460;7.252;2023-04-25T05:29:03;9.60;91.30
2042;DHT22;1026;51.460;7.252;2023-04-25T05:31:29;9.60;91.30
2042;DHT22;1026;51.460;7.252;2023-04-25T05:33:54;9.60;91.30
2042;DHT22;1026;51.460;7.252;2023-04-25T05:36:20;9.60;91.40
2042;DHT22;1026;51.460;7.252;2023-04-25T05:38:46;9.60;91.30
2042;DHT22;1026;51.460;7.252;2023-04-25T05:41:12;9.60;91.30
2042;DHT22;1026;51.460;7.252;2023-04-25T05:43:38;9.50;91.30
2042;DHT22;1026;51.460;7.252;2023-04-25T05:46:03;9.60;91.40
2042;DHT22;1026;51.460;7.252;2023-04-25T05:48:29;9.50;91.30
2042;DHT22;1026;51.460;7.252;2023-04-25T05:50:55;9.60;91.40
2042;DHT22;1026;51.460;7.252;2023-04-25T05:53:21;9.60;91.40
2042;DHT22;1026;51.460;7.252;2023-04-25T05:55:47;9.50;91.30
2042;DHT22;1026;51.460;7.252;2023-04-25T05:58:13;9.50;91.70
2042;DHT22;1026;51.460;7.252;2023-04-25T06:00:38;9.60;91.40
2042;DHT22;1026;51.460;7.252;2023-04-25T06:03:06;9.60;91.40
2042;DHT22;1026;51.460;7.252;2023-04-25T06:05:39;9.60;91.40
2042;DHT22;1026;51.460;7.252;2023-04-25T06:08:04;9.50;91.30
2042;DHT22;1026;51.460;7.252;2023-04-25T06:10:30;9.50;91.30
2042;DHT22;1026;51.460;7.252;2023-04-25T06:12:56;9.50;91.30
2042;DHT22;1026;51.460;7.252;2023-04-25T06:15:21;9.50;91.30
2042;DHT22;1026;51.460;7.252;2023-04-25T06:17:47;9.50;91.40
2042;DHT22;1026;51.460;7.252;2023-04-25T06:20:12;9.50;91.40
2042;DHT22;1026;51.460;7.252;2023-04-25T06:22:38;9.50;91.40
2042;DHT22;1026;51.460;7.252;2023-04-25T06:25:04;9.50;91.40
2042;DHT22;1026;51.460;7.252;2023-04-25T06:27:30;9.50;91.40
2042;DHT22;1026;51.460;7.252;2023-04-25T06:29:56;9.50;91.40
2042;DHT22;1026;51.460;7.252;2023-04-25T06:32:28;9.50;91.40
2042;DHT22;1026;51.460;7.252;2023-04-25T06:34:55;9.50;91.40
2042;DHT22;1026;51.460;7.252;2023-04-25T06:37:21;9.50;91.40
2042;DHT22;1026;51.460;7.252;2023-04-25T06:39:46;9.50;91.40
2042;DHT22;1026;51.460;7.252;2023-04-25T06:42:12;9.50;91.50
2042;DHT22;1026;51.460;7.252;2023-04-25T06:44:37;9.50;91.50
2042;DHT22;1026;51.460;7.252;2023-04-25T06:47:03;9.50;91.50
2042;DHT22;1026;51.460;7.252;2023-04-25T06:49:29;9.50;91.40
2042;DHT22;1026;51.460;7.252;2023-04-25T06:51:54;9.50;91.40
2042;DHT22;1026;51.460;7.252;2023-04-25T06:54:20;9.50;91.40
2042;DHT22;1026;51.460;7.252;2023-04-25T06:56:46;9.50;91.40
2042;DHT22;1026;51.460;7.252;2023-04-25T06:59:11;9.50;91.40
2042;DHT22;1026;51.460;7.252;2023-04-25T07:01:37;9.50;91.30
2042;DHT22;1026;51.460;7.252;2023-04-25T07:04:03;9.50;91.50
2042;DHT22;1026;51.460;7.252;2023-04-25T07:06:28;9.50;91.40
2042;DHT22;1026;51.460;7.252;2023-04-25T07:08:54;9.50;91.40
2042;DHT22;1026;51.460;7.252;2023-04-25T07:11:21;9.50;91.40
2042;DHT22;1026;51.460;7.252;2023-04-25T07:13:46;9.50;91.40
2042;DHT22;1026;51.460;7.252;2023-04-25T07:16:12;9.50;91.40
2042;DHT22;1026;51.460;7.252;2023-04-25T07:18:38;9.40;91.30
2042;DHT22;1026;51.460;7.252;2023-04-25T07:21:03;9.50;91.40
2042;DHT22;1026;51.460;7.252;2023-04-25T07:23:29;9.50;91.40
2042;DHT22;1026;51.460;7.252;2023-04-25T07:25:55;9.50;91.30
2042;DHT22;1026;51.460;7.252;2023-04-25T07:28:21;9.50;91.30
2042;DHT22;1026;51.460;7.252;2023-04-25T07:31:06;9.50;91.30
2042;DHT22;1026;51.460;7.252;2023-04-25T07:33:33;9.50;91.30
2042;DHT22;1026;51.460;7.252;2023-04-25T07:35:59;9.50;91.30
2042;DHT22;1026;51.460;7.252;2023-04-25T07:38:25;9.50;91.30
2042;DHT22;1026;51.460;7.252;2023-04-25T07:40:50;9.50;91.30
2042;DHT22;1026;51.460;7.252;2023-04-25T07:43:17;9.50;91.40
2042;DHT22;1026;51.460;7.252;2023-04-25T07:45:44;9.50;91.30
2042;DHT22;1026;51.460;7.252;2023-04-25T07:48:09;9.50;91.30
2042;DHT22;1026;51.460;7.252;2023-04-25T07:50:36;9.50;91.20
2042;DHT22;1026;51.460;7.252;2023-04-25T07:53:01;9.50;91.30
2042;DHT22;1026;51.460;7.252;2023-04-25T07:55:27;9.50;91.30
2042;DHT22;1026;51.460;7.252;2023-04-25T07:57:53;9.60;91.30
2042;DHT22;1026;51.460;7.252;2023-04-25T08:00:19;9.60;91.40
2042;DHT22;1026;51.460;7.252;2023-04-25T08:02:45;9.50;91.30
2042;DHT22;1026;51.460;7.252;2023-04-25T08:05:18;9.60;91.30
2042;DHT22;1026;51.460;7.252;2023-04-25T08:07:44;9.60;91.30
2042;DHT22;1026;51.460;7.252;2023-04-25T08:10:10;9.60;91.20
2042;DHT22;1026;51.460;7.252;2023-04-25T08:12:35;9.60;91.30
2042;DHT22;1026;51.460;7.252;2023-04-25T08:15:01;9.60;91.30
2042;DHT22;1026;51.460;7.252;2023-04-25T08:17:27;9.60;91.30
2042;DHT22;1026;51.460;7.252;2023-04-25T08:20:07;9.60;91.20
2042;DHT22;1026;51.460;7.252;2023-04-25T08:22:32;9.60;91.20
2042;DHT22;1026;51.460;7.252;2023-04-25T08:24:59;9.60;91.10
2042;DHT22;1026;51.460;7.252;2023-04-25T08:27:24;9.60;91.10
2042;DHT22;1026;51.460;7.252;2023-04-25T08:29:50;9.60;91.10
2042;DHT22;1026;51.460;7.252;2023-04-25T08:32:16;9.60;91.10
2042;DHT22;1026;51.460;7.252;2023-04-25T08:34:42;9.70;91.20
2042;DHT22;1026;51.460;7.252;2023-04-25T08:37:09;9.70;91.20
2042;DHT22;1026;51.460;7.252;2023-04-25T08:39:36;9.70;91.00
2042;DHT22;1026;51.460;7.252;2023-04-25T08:42:05;9.70;91.00
2042;DHT22;1026;51.460;7.252;2023-04-25T08:44:34;9.70;91.00
2042;DHT22;1026;51.460;7.252;2023-04-25T08:47:03;9.70;91.00
2042;DHT22;1026;51.460;7.252;2023-04-25T08:49:31;9.70;90.90
2042;DHT22;1026;51.460;7.252;2023-04-25T08:51:59;9.70;90.90
2042;DHT22;1026;51.460;7.252;2023-04-25T08:54:27;9.70;90.90
2042;DHT22;1026;51.460;7.252;2023-04-25T08:56:55;9.80;90.90
2042;DHT22;1026;51.460;7.252;2023-04-25T08:59:30;9.80;90.90
2042;DHT22;1026;51.460;7.252;2023-04-25T09:01:57;9.80;90.80
2042;DHT22;1026;51.460;7.252;2023-04-25T09:04:57;9.80;90.80
2042;DHT22;1026;51.460;7.252;2023-04-25T09:07:35;9.80;90.80
2042;DHT22;1026;51.460;7.252;2023-04-25T09:10:00;9.80;91.00
2042;DHT22;1026;51.460;7.252;2023-04-25T09:12:29;9.80;90.70
2042;DHT22;1026;51.460;7.252;2023-04-25T09:15:06;9.80;90.40
2042;DHT22;1026;51.460;7.252;2023-04-25T09:17:32;9.80;90.10
2042;DHT22;1026;51.460;7.252;2023-04-25T09:20:06;9.80;90.40
2042;DHT22;1026;51.460;7.252;2023-04-25T09:22:32;9.80;90.50
2042;DHT22;1026;51.460;7.252;2023-04-25T09:25:03;9.80;90.40
2042;DHT22;1026;51.460;7.252;2023-04-25T09:27:29;9.90;90.50
2042;DHT22;1026;51.460;7.252;2023-04-25T09:29:57;9.90;90.50
2042;DHT22;1026;51.460;7.252;2023-04-25T09:32:25;9.80;90.50
2042;DHT22;1026;51.460;7.252;2023-04-25T09:34:52;9.90;90.30
2042;DHT22;1026;51.460;7.252;2023-04-25T09:37:49;9.90;90.50
2042;DHT22;1026;51.460;7.252;2023-04-25T09:40:18;9.90;90.10
2042;DHT22;1026;51.460;7.252;2023-04-25T09:42:43;9.90;90.40
2042;DHT22;1026;51.460;7.252;2023-04-25T09:45:12;9.90;90.40
2042;DHT22;1026;51.460;7.252;2023-04-25T09:47:40;10.00;90.00
2042;DHT22;1026;51.460;7.252;2023-04-25T09:50:14;10.00;90.00
2042;DHT22;1026;51.460;7.252;2023-04-25T09:52:41;10.00;90.00
2042;DHT22;1026;51.460;7.252;2023-04-25T09:55:07;10.00;90.00
2042;DHT22;1026;51.460;7.252;2023-04-25T09:57:33;10.00;89.50
2042;DHT22;1026;51.460;7.252;2023-04-25T10:00:00;10.00;89.60
2042;DHT22;1026;51.460;7.252;2023-04-25T10:02:27;10.00;89.60
2042;DHT22;1026;51.460;7.252;2023-04-25T10:04:54;10.00;89.90
2042;DHT22;1026;51.460;7.252;2023-04-25T10:07:23;10.00;89.80
2042;DHT22;1026;51.460;7.252;2023-04-25T10:09:58;9.90;90.20
2042;DHT22;1026;51.460;7.252;2023-04-25T10:12:26;10.10;89.60
2042;DHT22;1026;51.460;7.252;2023-04-25T10:14:52;10.10;89.60
2042;DHT22;1026;51.460;7.252;2023-04-25T10:17:20;10.10;88.30
2042;DHT22;1026;51.460;7.252;2023-04-25T10:19:47;10.10;89.00
2042;DHT22;1026;51.460;7.252;2023-04-25T10:22:14;10.10;88.90
2042;DHT22;1026;51.460;7.252;2023-04-25T10:24:42;10.10;88.90
2042;DHT22;1026;51.460;7.252;2023-04-25T10:27:09;10.20;89.10
2042;DHT22;1026;51.460;7.252;2023-04-25T10:29:36;10.20;88.30
2042;DHT22;1026;51.460;7.252;2023-04-25T10:32:02;10.20;88.90
2042;DHT22;1026;51.460;7.252;2023-04-25T10:34:43;10.20;89.00
2042;DHT22;1026;51.460;7.252;2023-04-25T10:37:12;10.20;89.10
2042;DHT22;1026;51.460;7.252;2023-04-25T10:39:39;10.20;89.30
2042;DHT22;1026;51.460;7.252;2023-04-25T10:42:06;10.20;89.30
2042;DHT22;1026;51.460;7.252;2023-04-25T10:44:33;10.20;87.50
2042;DHT22;1026;51.460;7.252;2023-04-25T10:47:00;10.10;87.10
2042;DHT22;1026;51.460;7.252;2023-04-25T10:49:37;10.20;88.90
2042;DHT22;1026;51.460;7.252;2023-04-25T10:52:18;10.20;88.40
2042;DHT22;1026;51.460;7.252;2023-04-25T10:54:55;10.10;87.80
2042;DHT22;1026;51.460;7.252;2023-04-25T10:57:38;10.20;88.40
2042;DHT22;1026;51.460;7.252;2023-04-25T11:02:31;10.20;88.60
2042;DHT22;1026;51.460;7.252;2023-04-25T11:04:57;10.20;88.40
2042;DHT22;1026;51.460;7.252;2023-04-25T11:07:39;10.20;88.40
2042;DHT22;1026;51.460;7.252;2023-04-25T11:10:09;10.20;88.10
2042;DHT22;1026;51.460;7.252;2023-04-25T11:12:35;10.20;88.40
2042;DHT22;1026;51.460;7.252;2023-04-25T11:15:05;10.20;88.40
2042;DHT22;1026;51.460;7.252;2023-04-25T11:17:31;10.20;88.70
2042;DHT22;1026;51.460;7.252;2023-04-25T11:19:58;10.30;88.70
2042;DHT22;1026;51.460;7.252;2023-04-25T11:22:24;10.20;88.80
2042;DHT22;1026;51.460;7.252;2023-04-25T11:24:51;10.30;88.70
2042;DHT22;1026;51.460;7.252;2023-04-25T11:27:17;10.30;89.00
2042;DHT22;1026;51.460;7.252;2023-04-25T11:29:43;10.20;88.80
2042;DHT22;1026;51.460;7.252;2023-04-25T11:32:08;10.30;89.00
2042;DHT22;1026;51.460;7.252;2023-04-25T11:34:34;10.20;88.90
2042;DHT22;1026;51.460;7.252;2023-04-25T11:37:01;10.30;89.00
2042;DHT22;1026;51.460;7.252;2023-04-25T11:39:28;10.30;89.10
2042;DHT22;1026;51.460;7.252;2023-04-25T11:41:54;10.40;89.10
2042;DHT22;1026;51.460;7.252;2023-04-25T11:44:20;10.40;89.20
2042;DHT22;1026;51.460;7.252;2023-04-25T11:46:47;10.30;88.90
2042;DHT22;1026;51.460;7.252;2023-04-25T11:49:14;10.40;89.30
2042;DHT22;1026;51.460;7.252;2023-04-25T11:51:42;10.30;89.10
2042;DHT22;1026;51.460;7.252;2023-04-25T11:54:09;10.30;89.10
2042;DHT22;1026;51.460;7.252;2023-04-25T11:56:34;10.30;89.20
2042;DHT22;1026;51.460;7.252;2023-04-25T11:59:02;10.40;89.30
2042;DHT22;1026;51.460;7.252;2023-04-25T12:01:30;10.40;89.20
2042;DHT22;1026;51.460;7.252;2023-04-25T12:03:56;10.40;89.20
2042;DHT22;1026;51.460;7.252;2023-04-25T12:06:26;10.40;88.40
2042;DHT22;1026;51.460;7.252;2023-04-25T12:09:03;10.40;89.10
2042;DHT22;1026;51.460;7.252;2023-04-25T12:11:30;10.40;89.10
2042;DHT22;1026;51.460;7.252;2023-04-25T12:14:02;10.40;89.00
2042;DHT22;1026;51.460;7.252;2023-04-25T12:16:29;10.40;88.80
2042;DHT22;1026;51.460;7.252;2023-04-25T12:18:56;10.40;86.10
2042;DHT22;1026;51.460;7.252;2023-04-25T12:21:22;10.40;88.70
2042;DHT22;1026;51.460;7.252;2023-04-25T12:23:48;10.40;88.30
2042;DHT22;1026;51.460;7.252;2023-04-25T12:26:13;10.40;87.20
2042;DHT22;1026;51.460;7.252;2023-04-25T12:28:39;10.40;86.90
2042;DHT22;1026;51.460;7.252;2023-04-25T12:31:06;10.30;85.40
2042;DHT22;1026;51.460;7.252;2023-04-25T12:33:33;10.40;87.30
2042;DHT22;1026;51.460;7.252;2023-04-25T12:36:00;10.50;88.10
2042;DHT22;1026;51.460;7.252;2023-04-25T12:38:30;10.50;86.80
2042;DHT22;1026;51.460;7.252;2023-04-25T12:40:57;10.50;87.10
2042;DHT22;1026;51.460;7.252;2023-04-25T12:43:23;10.50;85.20
2042;DHT22;1026;51.460;7.252;2023-04-25T12:45:52;10.50;85.40
2042;DHT22;1026;51.460;7.252;2023-04-25T12:48:18;10.60;86.30
2042;DHT22;1026;51.460;7.252;2023-04-25T12:50:51;10.60;87.40
2042;DHT22;1026;51.460;7.252;2023-04-25T12:53:18;10.60;88.20
2042;DHT22;1026;51.460;7.252;2023-04-25T12:55:44;10.60;87.00
2042;DHT22;1026;51.460;7.252;2023-04-25T12:58:13;10.60;87.90
2042;DHT22;1026;51.460;7.252;2023-04-25T13:00:54;10.50;87.00
2042;DHT22;1026;51.460;7.252;2023-04-25T13:03:20;10.60;87.30
2042;DHT22;1026;51.460;7.252;2023-04-25T13:05:45;10.60;86.20
2042;DHT22;1026;51.460;7.252;2023-04-25T13:08:11;10.70;87.90
2042;DHT22;1026;51.460;7.252;2023-04-25T13:10:37;10.60;87.60
2042;DHT22;1026;51.460;7.252;2023-04-25T13:13:04;10.60;88.10
2042;DHT22;1026;51.460;7.252;2023-04-25T13:15:30;10.70;87.30
2042;DHT22;1026;51.460;7.252;2023-04-25T13:17:56;10.70;86.30
2042;DHT22;1026;51.460;7.252;2023-04-25T13:20:21;10.70;87.30
2042;DHT22;1026;51.460;7.252;2023-04-25T13:22:47;10.70;88.20
2042;DHT22;1026;51.460;7.252;2023-04-25T13:25:13;10.60;86.90
2042;DHT22;1026;51.460;7.252;2023-04-25T13:27:39;10.60;87.50
2042;DHT22;1026;51.460;7.252;2023-04-25T13:30:06;10.70;88.10
2042;DHT22;1026;51.460;7.252;2023-04-25T13:32:34;10.70;87.50
2042;DHT22;1026;51.460;7.252;2023-04-25T13:35:03;10.70;87.70
2042;DHT22;1026;51.460;7.252;2023-04-25T13:37:29;10.80;87.20
2042;DHT22;1026;51.460;7.252;2023-04-25T13:39:56;10.80;86.80
2042;DHT22;1026;51.460;7.252;2023-04-25T13:42:22;10.70;86.10
2042;DHT22;1026;51.460;7.252;2023-04-25T13:44:48;10.60;84.30
2042;DHT22;1026;51.460;7.252;2023-04-25T13:47:14;10.70;85.80
2042;DHT22;1026;51.460;7.252;2023-04-25T13:49:39;10.60;85.50
2042;DHT22;1026;51.460;7.252;2023-04-25T13:52:05;10.70;85.80
2042;DHT22;1026;51.460;7.252;2023-04-25T13:54:31;10.80;86.30
2042;DHT22;1026;51.460;7.252;2023-04-25T13:56:57;10.70;86.80
2042;DHT22;1026;51.460;7.252;2023-04-25T13:59:24;10.70;86.80
2042;DHT22;1026;51.460;7.252;2023-04-25T14:01:51;10.70;84.80
2042;DHT22;1026;51.460;7.252;2023-04-25T14:04:17;10.80;86.60
2042;DHT22;1026;51.460;7.252;2023-04-25T14:06:42;10.80;87.30
2042;DHT22;1026;51.460;7.252;2023-04-25T14:09:15;10.80;87.30
2042;DHT22;1026;51.460;7.252;2023-04-25T14:11:41;10.80;85.30
2042;DHT22;1026;51.460;7.252;2023-04-25T14:14:06;10.80;86.80
2042;DHT22;1026;51.460;7.252;2023-04-25T14:16:34;10.90;87.00
2042;DHT22;1026;51.460;7.252;2023-04-25T14:19:00;10.90;86.30
2042;DHT22;1026;51.460;7.252;2023-04-25T14:21:27;10.80;85.20
2042;DHT22;1026;51.460;7.252;2023-04-25T14:23:53;10.90;86.50
2042;DHT22;1026;51.460;7.252;2023-04-25T14:26:19;10.90;85.60
2042;DHT22;1026;51.460;7.252;2023-04-25T14:28:45;10.90;84.80
2042;DHT22;1026;51.460;7.252;2023-04-25T14:31:10;11.00;84.80
2042;DHT22;1026;51.460;7.252;2023-04-25T14:33:36;11.00;86.60
2042;DHT22;1026;51.460;7.252;2023-04-25T14:36:05;11.00;86.60
2042;DHT22;1026;51.460;7.252;2023-04-25T14:38:31;11.10;85.30
2042;DHT22;1026;51.460;7.252;2023-04-25T14:40:56;11.00;84.00
2042;DHT22;1026;51.460;7.252;2023-04-25T14:43:22;11.00;84.20
2042;DHT22;1026;51.460;7.252;2023-04-25T14:45:48;11.20;84.70
2042;DHT22;1026;51.460;7.252;2023-04-25T14:48:13;11.20;85.20
2042;DHT22;1026;51.460;7.252;2023-04-25T14:50:40;11.30;85.20
2042;DHT22;1026;51.460;7.252;2023-04-25T14:53:06;11.30;84.70
2042;DHT22;1026;51.460;7.252;2023-04-25T14:55:31;11.30;84.60
2042;DHT22;1026;51.460;7.252;2023-04-25T14:57:57;11.30;84.90
2042;DHT22;1026;51.460;7.252;2023-04-25T15:00:23;11.40;85.20
2042;DHT22;1026;51.460;7.252;2023-04-25T15:02:50;11.40;84.40
2042;DHT22;1026;51.460;7.252;2023-04-25T15:05:16;11.30;82.20
2042;DHT22;1026;51.460;7.252;2023-04-25T15:07:42;11.40;81.80
2042;DHT22;1026;51.460;7.252;2023-04-25T15:10:08;11.40;80.70
2042;DHT22;1026;51.460;7.252;2023-04-25T15:12:39;11.40;82.60
2042;DHT22;1026;51.460;7.252;2023-04-25T15:15:06;11.40;80.40
2042;DHT22;1026;51.460;7.252;2023-04-25T15:17:41;11.30;82.60
2042;DHT22;1026;51.460;7.252;2023-04-25T15:20:08;11.40;82.90
2042;DHT22;1026;51.460;7.252;2023-04-25T15:22:36;11.40;82.20
2042;DHT22;1026;51.460;7.252;2023-04-25T15:25:03;11.40;83.10
2042;DHT22;1026;51.460;7.252;2023-04-25T15:27:29;11.40;81.80
2042;DHT22;1026;51.460;7.252;2023-04-25T15:29:56;11.40;82.50
2042;DHT22;1026;51.460;7.252;2023-04-25T15:32:21;11.40;81.60
2042;DHT22;1026;51.460;7.252;2023-04-25T15:34:48;11.40;81.20
2042;DHT22;1026;51.460;7.252;2023-04-25T15:37:15;11.40;81.20
2042;DHT22;1026;51.460;7.252;2023-04-25T15:39:41;11.50;80.90
2042;DHT22;1026;51.460;7.252;2023-04-25T15:42:07;11.50;81.90
2042;DHT22;1026;51.460;7.252;2023-04-25T15:44:33;11.60;81.90
2042;DHT22;1026;51.460;7.252;2023-04-25T15:46:58;11.60;80.40
2042;DHT22;1026;51.460;7.252;2023-04-25T15:49:24;11.60;79.90
2042;DHT22;1026;51.460;7.252;2023-04-25T15:51:50;11.50;81.10
2042;DHT22;1026;51.460;7.252;2023-04-25T15:54:17;11.50;81.50
2042;DHT22;1026;51.460;7.252;2023-04-25T15:56:42;11.60;81.80
2042;DHT22;1026;51.460;7.252;2023-04-25T15:59:09;11.60;81.50
2042;DHT22;1026;51.460;7.252;2023-04-25T16:01:35;11.60;80.60
2042;DHT22;1026;51.460;7.252;2023-04-25T16:04:03;11.60;82.20
2042;DHT22;1026;51.460;7.252;2023-04-25T16:06:29;11.60;82.50
2042;DHT22;1026;51.460;7.252;2023-04-25T16:08:55;11.60;80.60
2042;DHT22;1026;51.460;7.252;2023-04-25T16:11:21;11.60;79.90